Time;durP1;ratioP1;P1;durP2;ratioP2;P2;SDS_P1;SDS_P2;PMS_P1;PMS_P2;Temp;Humidity;BMP_temperature;BMP_pressure;BME280_temperature;BME280_humidity;BME280_pressure;Samples;Min_cycle;Max_cycle;Signal;HPM_P1;HPM_P2
2022/09/29 06:40:27;;;;;;;7.28;3.80;;;14.80;68.30;;;;;;4764905;30;20071;-74
2022/09/29 06:42:53;;;;;;;5.90;4.88;;;14.80;67.80;;;;;;4758754;30;20060;-72
2022/09/29 06:45:19;;;;;;;5.15;4.50;;;14.80;67.10;;;;;;4753942;30;20087;-73
2022/09/29 06:47:44;;;;;;;5.50;5.00;;;14.80;66.60;;;;;;4755499;30;20424;-75
2022/09/29 06:50:10;;;;;;;9.45;6.03;;;14.70;67.00;;;;;;4754779;30;20052;-74
2022/09/29 06:52:36;;;;;;;6.63;5.70;;;14.80;66.10;;;;;;4755513;30;20088;-74
2022/09/29 06:55:02;;;;;;;9.88;6.07;;;14.80;66.00;;;;;;4768721;30;20071;-75
2022/09/29 06:57:27;;;;;;;15.15;7.00;;;14.80;65.70;;;;;;4772807;30;20446;-74
2022/09/29 06:59:53;;;;;;;13.82;7.32;;;14.80;65.50;;;;;;4772573;30;20142;-75
2022/09/29 07:02:19;;;;;;;10.88;7.55;;;14.80;65.40;;;;;;4764628;30;20087;-75
2022/09/29 07:04:46;;;;;;;10.57;7.68;;;14.80;65.40;;;;;;4754379;30;20448;-75
2022/09/29 07:07:12;;;;;;;12.27;8.23;;;14.80;65.30;;;;;;4754671;30;20056;-75
2022/09/29 07:09:38;;;;;;;9.50;7.15;;;14.80;65.30;;;;;;4754782;30;20538;-75
2022/09/29 07:12:04;;;;;;;8.60;6.93;;;14.90;65.30;;;;;;4753102;30;20052;-74
2022/09/29 07:14:30;;;;;;;9.77;6.78;;;14.90;65.30;;;;;;4762183;30;20160;-74
2022/09/29 07:16:58;;;;;;;14.73;6.75;;;14.80;65.30;;;;;;4756094;30;20475;-74
2022/09/29 07:19:24;;;;;;;7.85;6.07;;;14.80;65.50;;;;;;4772224;30;20165;-74
2022/09/29 07:21:50;;;;;;;7.50;5.22;;;14.80;65.70;;;;;;4752553;30;20103;-74
2022/09/29 07:24:16;;;;;;;8.50;6.60;;;14.80;66.50;;;;;;4754997;30;20055;-74
2022/09/29 07:26:42;;;;;;;10.07;5.95;;;14.80;66.10;;;;;;4754531;30;20052;-74
2022/09/29 07:29:08;;;;;;;7.60;5.68;;;14.80;66.30;;;;;;4755045;30;20048;-74
2022/09/29 07:31:34;;;;;;;6.47;5.47;;;14.80;66.40;;;;;;4755113;30;20098;-74
2022/09/29 07:34:00;;;;;;;6.50;5.00;;;14.80;66.50;;;;;;4767350;30;20079;-74
2022/09/29 07:36:26;;;;;;;7.55;4.90;;;14.80;66.60;;;;;;4754280;30;20137;-74
2022/09/29 07:38:51;;;;;;;6.60;5.03;;;14.90;66.70;;;;;;4756888;30;20091;-74
2022/09/29 07:41:19;;;;;;;6.28;5.13;;;14.90;66.70;;;;;;4772431;30;20070;-74
2022/09/29 07:43:45;;;;;;;7.70;5.43;;;14.90;66.80;;;;;;4770878;30;20055;-74
2022/09/29 07:46:11;;;;;;;6.30;4.55;;;14.90;66.90;;;;;;4772181;30;20477;-74
2022/09/29 07:48:38;;;;;;;4.80;3.85;;;14.90;66.90;;;;;;4772060;30;20461;-74
2022/09/29 07:51:22;;;;;;;6.63;4.45;;;14.90;67.00;;;;;;4771924;30;20048;-74
2022/09/29 07:53:47;;;;;;;5.55;4.30;;;14.90;67.00;;;;;;4771807;30;20096;-74
2022/09/29 07:56:17;;;;;;;6.30;4.03;;;14.90;67.10;;;;;;4772148;30;20139;-80
2022/09/29 07:58:44;;;;;;;7.03;4.60;;;14.90;67.30;;;;;;4771919;30;20107;-72
2022/09/29 08:01:12;;;;;;;6.30;3.42;;;14.90;68.10;;;;;;4771743;30;20141;-73
2022/09/29 08:03:46;;;;;;;6.30;3.50;;;14.90;68.10;;;;;;4770462;30;20083;-71
2022/09/29 09:21:50;;;;;;;3.65;2.17;;;15.20;70.70;;;;;;5139683;24;20486;-71
2022/09/29 09:24:27;;;;;;;3.53;1.88;;;15.20;70.80;;;;;;4817435;29;20423;-70
2022/09/29 09:26:53;;;;;;;4.20;2.35;;;15.20;70.90;;;;;;4810062;29;20051;-73
2022/09/29 09:29:35;;;;;;;3.95;2.17;;;15.20;70.90;;;;;;4807406;29;20050;-70
2022/09/29 09:32:06;;;;;;;7.22;1.63;;;15.20;71.00;;;;;;4807982;29;20129;-71
2022/09/29 09:34:59;;;;;;;6.40;2.38;;;15.20;71.00;;;;;;4810597;29;20529;-72
2022/09/29 09:37:33;;;;;;;5.47;2.58;;;15.20;71.00;;;;;;4809070;29;20062;-73
2022/09/29 09:40:17;;;;;;;4.50;2.97;;;15.20;70.90;;;;;;4809481;29;20050;-74
2022/09/29 09:42:46;;;;;;;;;;;15.20;70.90;;;;;;4809806;29;20057;-74
2022/09/29 09:45:29;;;;;;;7.18;2.25;;;15.20;70.80;;;;;;4825569;29;19925;-73
2022/09/29 09:48:22;;;;;;;7.28;2.15;;;15.30;71.10;;;;;;4827682;29;20064;-74
2022/09/29 09:50:49;;;;;;;3.60;2.20;;;15.30;71.00;;;;;;4805018;29;20484;-74
2022/09/29 09:53:28;;;;;;;3.35;1.67;;;15.30;71.10;;;;;;4826503;29;20051;-74
2022/09/29 09:56:13;;;;;;;7.05;1.88;;;15.30;71.20;;;;;;4818358;29;20086;-76
2022/09/29 09:59:21;;;;;;;6.45;1.77;;;15.30;71.30;;;;;;4809694;29;20192;-74
2022/09/29 10:01:47;;;;;;;4.88;1.52;;;15.40;71.00;;;;;;4794232;29;20062;-74
2022/09/29 10:04:13;;;;;;;6.40;1.65;;;15.40;70.90;;;;;;4809514;29;20069;-75
2022/09/29 10:06:40;;;;;;;5.68;1.60;;;15.40;70.80;;;;;;4793420;29;20043;-75
2022/09/29 10:09:13;;;;;;;3.67;1.38;;;15.40;70.60;;;;;;4813788;29;20050;-74
2022/09/29 10:11:42;;;;;;;2.60;1.45;;;15.30;70.60;;;;;;4809505;29;20485;-73
2022/09/29 10:14:25;;;;;;;3.08;1.20;;;15.40;70.60;;;;;;4809461;29;20355;-74
2022/09/29 10:16:59;;;;;;;2.17;1.15;;;15.30;70.60;;;;;;4809101;29;20145;-73
2022/09/29 10:19:58;;;;;;;2.58;1.40;;;15.40;70.50;;;;;;4808758;29;20055;-75
2022/09/29 10:22:26;;;;;;;2.05;0.80;;;15.40;70.30;;;;;;4807536;29;20066;-74
2022/09/29 11:57:02;;;;;;;1.85;0.20;;;15.70;70.40;;;;;;5504704;24;20058;-74
2022/09/29 12:00:07;;;;;;;1.10;0.20;;;15.70;70.20;;;;;;4843000;29;20057;-73
2022/09/29 12:02:45;;;;;;;1.08;0.43;;;15.70;70.20;;;;;;4795149;29;20394;-74
2022/09/29 12:05:30;;;;;;;0.47;0.10;;;15.70;70.30;;;;;;4826583;29;20065;-74
2022/09/29 12:08:23;;;;;;;0.45;0.20;;;15.80;70.30;;;;;;4826279;29;20141;-74
2022/09/29 12:10:57;;;;;;;1.97;0.53;;;15.80;70.40;;;;;;4829772;29;20488;-74
2022/09/29 12:13:38;;;;;;;0.45;0.30;;;15.80;70.40;;;;;;4845567;29;20476;-76
2022/09/29 12:16:13;;;;;;;0.60;0.30;;;15.80;70.40;;;;;;4847666;29;20086;-74
2022/09/29 12:18:48;;;;;;;1.27;0.22;;;15.80;70.40;;;;;;4847967;29;20074;-74
2022/09/29 12:21:22;;;;;;;0.98;0.30;;;15.80;70.40;;;;;;4847242;29;20049;-75
2022/09/29 12:23:48;;;;;;;0.70;0.20;;;15.80;70.40;;;;;;4847450;29;20136;-74
2022/09/29 12:26:23;;;;;;;0.80;0.10;;;15.80;70.40;;;;;;4847593;29;20365;-74
2022/09/29 12:29:07;;;;;;;0.75;0.30;;;15.80;70.40;;;;;;4847828;29;20378;-74
2022/09/29 12:31:37;;;;;;;1.38;0.20;;;15.80;70.40;;;;;;4847407;29;20062;-73
2022/09/29 12:34:16;;;;;;;8.40;1.10;;;15.80;70.20;;;;;;4846827;29;20158;-75
2022/09/29 12:36:45;;;;;;;6.18;0.90;;;15.90;70.10;;;;;;4847532;29;20070;-76
2022/09/29 12:39:37;;;;;;;4.60;0.40;;;15.90;70.10;;;;;;4847636;29;20068;-73
2022/09/29 12:42:20;;;;;;;4.53;0.70;;;15.80;70.00;;;;;;4847113;29;20562;-72
2022/09/29 12:45:13;;;;;;;8.50;0.88;;;15.90;70.10;;;;;;4846952;29;20050;-73
2022/09/29 12:47:56;;;;;;;4.87;0.50;;;15.90;70.00;;;;;;4846631;29;20146;-72
2022/09/29 12:50:37;;;;;;;8.02;0.88;;;15.90;70.20;;;;;;4847058;29;20287;-73
2022/09/29 12:53:23;;;;;;;5.55;0.50;;;15.90;69.60;;;;;;4846748;29;20053;-73
2022/09/29 15:54:21;;;;;;;6.95;0.90;;;16.20;70.30;;;;;;5030262;24;20145;-73
2022/09/29 15:59:42;;;;;;;4.95;0.80;;;16.20;70.10;;;;;;4827265;29;20148;-76
2022/09/29 16:02:35;;;;;;;13.10;0.90;;;16.20;70.10;;;;;;4837302;29;20046;-74
2022/09/29 16:05:13;;;;;;;9.85;0.85;;;16.20;70.00;;;;;;4843657;29;20061;-76
2022/09/29 16:07:47;;;;;;;6.65;0.60;;;16.20;69.90;;;;;;4843871;29;20050;-74
2022/09/29 16:10:16;;;;;;;6.38;0.85;;;16.20;69.70;;;;;;4843743;29;20505;-73
2022/09/29 16:13:07;;;;;;;3.08;0.40;;;16.30;69.50;;;;;;4842069;29;20049;-76
2022/09/29 16:15:47;;;;;;;2.85;0.20;;;16.30;69.40;;;;;;4844125;29;20462;-74
2022/09/29 16:18:39;;;;;;;7.07;1.60;;;16.20;69.20;;;;;;4825200;29;20392;-75
2022/09/29 16:21:09;;;;;;;6.90;1.08;;;16.30;69.50;;;;;;4825812;29;20097;-77
2022/09/29 16:24:10;;;;;;;2.70;0.65;;;16.30;70.00;;;;;;4842261;29;20064;-76
2022/09/29 16:26:39;;;;;;;7.03;0.77;;;16.30;70.40;;;;;;4844068;29;20089;-76
2022/09/29 16:29:16;;;;;;;5.22;0.98;;;16.30;70.30;;;;;;4844160;29;20516;-76
2022/09/29 18:35:11;;;;;;;2.17;0.25;;;16.10;70.40;;;;;;5083315;23;20090;-73
2022/09/29 18:37:37;;;;;;;2.22;0.22;;;16.00;70.80;;;;;;4809007;29;20059;-72
2022/09/29 18:40:03;;;;;;;2.65;0.22;;;16.00;71.00;;;;;;4809268;29;20063;-74
2022/09/29 18:42:28;;;;;;;2.65;0.20;;;16.10;71.10;;;;;;4809027;29;20474;-74
2022/09/29 18:44:54;;;;;;;1.30;0.10;;;16.10;71.30;;;;;;4793092;29;20403;-73
2022/09/29 18:47:20;;;;;;;2.38;0.52;;;16.10;71.20;;;;;;4808282;29;20146;-69
2022/09/29 18:49:47;;;;;;;2.60;0.45;;;16.10;71.30;;;;;;4808605;29;20078;-79
2022/09/29 18:52:13;;;;;;;1.67;0.30;;;16.20;71.70;;;;;;4808856;29;20050;-74
2022/09/29 18:54:39;;;;;;;2.92;0.15;;;16.20;72.20;;;;;;4808505;29;20060;-75
2022/09/29 18:57:06;;;;;;;3.30;0.30;;;16.20;72.40;;;;;;4791060;29;20058;-75
2022/09/29 18:59:32;;;;;;;3.00;0.43;;;16.20;72.80;;;;;;4775327;30;20139;-76
2022/09/29 19:01:58;;;;;;;4.75;0.82;;;16.20;73.00;;;;;;4791295;30;20354;-74
2022/09/29 19:04:24;;;;;;;1.90;0.40;;;16.20;73.30;;;;;;4790932;30;20055;-73
2022/09/29 19:06:50;;;;;;;5.22;0.60;;;16.20;73.40;;;;;;4774992;30;20063;-76
2022/09/29 19:09:15;;;;;;;3.28;0.22;;;16.30;73.60;;;;;;4807438;29;20069;-75
2022/09/29 19:11:42;;;;;;;4.63;0.60;;;16.30;73.90;;;;;;4808512;29;20086;-75
2022/09/29 19:14:08;;;;;;;5.38;0.30;;;16.30;74.30;;;;;;4808643;29;20348;-74
2022/09/29 19:16:33;;;;;;;4.68;0.57;;;16.30;74.50;;;;;;4808273;29;20062;-75
2022/09/29 19:18:59;;;;;;;2.92;0.20;;;16.30;74.90;;;;;;4808348;29;20055;-76
2022/09/29 19:21:25;;;;;;;0.93;0.20;;;16.30;74.80;;;;;;4808761;29;20051;-75
2022/09/29 19:23:51;;;;;;;3.20;0.20;;;16.30;74.70;;;;;;4808396;29;20081;-74
2022/09/29 19:26:21;;;;;;;2.30;0.20;;;16.30;74.40;;;;;;4806946;29;20042;-73
2022/09/29 19:28:47;;;;;;;2.60;0.20;;;16.30;74.30;;;;;;4807652;29;20051;-72
2022/09/29 19:31:16;;;;;;;3.17;0.30;;;16.30;74.30;;;;;;4807858;29;20042;-73
2022/09/29 19:33:42;;;;;;;2.22;0.20;;;16.40;74.40;;;;;;4807619;29;20054;-77
2022/09/29 19:36:13;;;;;;;2.65;0.50;;;16.40;74.30;;;;;;4808055;29;20058;-75
2022/09/29 19:38:39;;;;;;;0.75;0.20;;;16.30;74.20;;;;;;4808236;29;20377;-75
2022/09/29 19:41:22;;;;;;;0.52;0.30;;;16.30;74.70;;;;;;4808379;29;20141;-75
2022/09/29 19:43:49;;;;;;;2.58;0.40;;;16.40;74.20;;;;;;4808342;29;20047;-77
2022/09/29 19:46:17;;;;;;;0.88;0.35;;;16.40;74.10;;;;;;4792666;29;20050;-76
2022/09/29 19:48:44;;;;;;;1.58;0.40;;;16.30;74.10;;;;;;4792006;29;20070;-74
2022/09/29 19:54:20;;;;;;;4.22;0.45;;;16.40;74.10;;;;;;4791974;29;20055;-75
2022/09/29 19:56:52;;;;;;;1.65;0.30;;;16.30;73.90;;;;;;4808299;29;20058;-75
2022/09/29 19:59:25;;;;;;;1.35;0.10;;;16.30;73.90;;;;;;4791926;29;20079;-76
2022/09/29 20:01:51;;;;;;;0.55;0.20;;;16.30;74.50;;;;;;4792630;29;20474;-76
2022/09/29 20:04:20;;;;;;;1.02;0.20;;;16.30;73.90;;;;;;4807889;29;20054;-75
2022/09/29 20:06:46;;;;;;;2.78;0.20;;;16.30;73.80;;;;;;4777023;29;20058;-76
2022/09/29 20:09:12;;;;;;;1.33;0.20;;;16.30;73.80;;;;;;4807975;29;20086;-76
2022/09/29 20:11:39;;;;;;;0.75;0.20;;;16.30;73.80;;;;;;4807956;29;20047;-75
2022/09/29 20:14:07;;;;;;;0.65;0.10;;;16.30;73.70;;;;;;4807994;29;20054;-76
2022/09/29 20:16:36;;;;;;;0.93;0.10;;;16.30;73.70;;;;;;4808141;29;20061;-75
2022/09/29 20:19:04;;;;;;;0.50;0.10;;;16.30;73.70;;;;;;4807581;29;20435;-74
2022/09/29 20:21:31;;;;;;;1.30;0.30;;;16.30;73.60;;;;;;4807740;29;20135;-73
2022/09/29 20:23:58;;;;;;;1.40;0.10;;;16.30;73.60;;;;;;4792041;29;20058;-77
2022/09/29 20:26:24;;;;;;;2.33;0.20;;;16.30;73.60;;;;;;4807746;29;20477;-76
2022/09/29 20:28:51;;;;;;;1.13;0.38;;;16.40;73.60;;;;;;4791748;29;20530;-77
2022/09/29 20:31:18;;;;;;;1.73;0.30;;;16.30;73.30;;;;;;4811022;29;20054;-76
2022/09/29 20:33:47;;;;;;;2.63;0.30;;;16.40;72.80;;;;;;4810858;29;20051;-77
2022/09/29 20:36:14;;;;;;;3.90;0.28;;;16.40;72.20;;;;;;4811205;29;20062;-77
2022/09/29 20:38:42;;;;;;;1.20;0.20;;;16.30;71.90;;;;;;4810459;29;20378;-75
2022/09/29 20:41:09;;;;;;;0.95;0.30;;;16.40;71.60;;;;;;4792987;30;20358;-78
2022/09/29 20:43:35;;;;;;;0.88;0.25;;;16.30;71.50;;;;;;4799418;29;20137;-76
2022/09/29 20:46:04;;;;;;;1.00;0.30;;;16.40;71.40;;;;;;4810855;29;20054;-77
2022/09/29 20:48:34;;;;;;;0.50;0.20;;;16.40;71.10;;;;;;4798453;29;20066;-75
2022/09/29 20:51:02;;;;;;;0.85;0.30;;;16.40;70.90;;;;;;4793456;30;20325;-76
2022/09/29 20:53:31;;;;;;;2.58;0.45;;;16.40;70.80;;;;;;4787986;29;20059;-76
2022/09/29 20:56:05;;;;;;;3.83;0.20;;;16.30;70.80;;;;;;4810646;29;20074;-78
2022/09/29 20:58:32;;;;;;;0.70;0.20;;;16.30;70.80;;;;;;4808588;29;20412;-76
2022/09/29 21:01:19;;;;;;;1.73;0.20;;;16.30;70.90;;;;;;4813903;29;20093;-76
2022/09/29 21:04:10;;;;;;;1.20;0.15;;;16.30;71.10;;;;;;4792732;29;20058;-77
2022/09/29 21:06:39;;;;;;;3.10;0.32;;;16.30;71.30;;;;;;4788816;29;20077;-76
2022/09/29 21:09:06;;;;;;;0.63;0.10;;;16.30;71.50;;;;;;4791610;30;20055;-74
2022/09/29 21:11:37;;;;;;;1.67;0.10;;;16.30;71.60;;;;;;4803877;29;20125;-75
2022/09/29 21:14:07;;;;;;;0.50;0.10;;;16.30;71.60;;;;;;4809324;29;20054;-74
2022/09/29 21:16:44;;;;;;;1.58;0.25;;;16.30;71.60;;;;;;4794339;29;20055;-78
2022/09/29 21:19:10;;;;;;;1.77;0.50;;;16.40;71.00;;;;;;4804807;29;20394;-76
2022/09/29 21:21:36;;;;;;;1.83;0.50;;;16.30;70.00;;;;;;4788146;29;20412;-75
2022/09/29 21:24:02;;;;;;;3.47;0.40;;;16.20;69.50;;;;;;4801546;29;20572;-75
2022/09/29 21:26:30;;;;;;;1.67;0.40;;;16.00;69.40;;;;;;4801842;29;20146;-76
2022/09/29 21:28:58;;;;;;;1.98;0.52;;;15.90;69.50;;;;;;4810220;29;20133;-75
2022/09/29 21:31:26;;;;;;;1.02;0.47;;;15.70;69.70;;;;;;4794861;29;20060;-76
2022/09/29 21:33:56;;;;;;;0.75;0.57;;;15.60;70.00;;;;;;4809874;29;20097;-75
2022/09/29 21:36:24;;;;;;;1.15;0.47;;;15.50;70.20;;;;;;4809935;29;20067;-74
2022/09/29 21:38:50;;;;;;;2.53;0.60;;;15.40;70.40;;;;;;4810002;29;20063;-77
2022/09/29 21:41:26;;;;;;;1.02;0.40;;;15.30;71.10;;;;;;4809023;29;20082;-77
2022/09/29 21:43:57;;;;;;;1.70;0.50;;;15.40;71.50;;;;;;4810242;29;20382;-74
2022/09/29 21:46:25;;;;;;;4.38;0.50;;;15.40;72.20;;;;;;4809846;29;20050;-75
2022/09/29 21:48:53;;;;;;;0.95;0.40;;;15.40;71.60;;;;;;4809866;29;20047;-77
2022/09/29 21:51:22;;;;;;;1.20;0.30;;;15.50;71.70;;;;;;4794193;29;20054;-76
2022/09/29 21:53:50;;;;;;;1.90;0.25;;;15.60;71.80;;;;;;4809887;29;20375;-77
2022/09/29 21:56:19;;;;;;;1.17;0.30;;;15.60;71.70;;;;;;4793826;29;20062;-76
2022/09/29 21:58:46;;;;;;;2.63;0.30;;;15.60;71.70;;;;;;4793155;29;20047;-75
2022/09/29 22:01:12;;;;;;;0.47;0.20;;;15.70;71.70;;;;;;4808244;29;20454;-77
2022/09/29 22:03:40;;;;;;;2.17;0.30;;;15.70;71.70;;;;;;4809592;29;20054;-76
2022/09/29 22:06:11;;;;;;;1.08;0.30;;;15.60;71.70;;;;;;4809837;29;20407;-76
2022/09/29 22:08:37;;;;;;;0.93;0.22;;;15.60;71.70;;;;;;4809968;29;20112;-74
2022/09/29 22:11:03;;;;;;;1.40;0.30;;;15.60;71.80;;;;;;4793895;29;20082;-77
2022/09/29 22:13:30;;;;;;;0.93;0.20;;;15.70;71.90;;;;;;4808901;29;20451;-76
2022/09/29 22:16:11;;;;;;;2.00;0.30;;;15.70;71.90;;;;;;4809329;29;20367;-75
2022/09/29 22:18:37;;;;;;;0.43;0.13;;;15.70;71.60;;;;;;4793341;29;20485;-75
2022/09/29 22:21:05;;;;;;;2.13;0.20;;;15.70;71.80;;;;;;4809254;29;20050;-75
2022/09/29 22:23:31;;;;;;;2.58;0.25;;;15.70;71.80;;;;;;4809525;29;20058;-76
2022/09/29 22:25:57;;;;;;;0.50;0.30;;;15.70;71.90;;;;;;4807756;29;20058;-75
2022/09/29 22:28:24;;;;;;;0.45;0.10;;;15.70;71.90;;;;;;4805346;29;20046;-75
2022/09/29 22:30:50;;;;;;;1.10;0.43;;;15.70;71.90;;;;;;4797439;29;20146;-75
2022/09/29 22:33:18;;;;;;;0.68;0.30;;;15.70;71.80;;;;;;4808067;29;20051;-75
2022/09/29 22:35:43;;;;;;;0.60;0.28;;;15.70;71.90;;;;;;4808932;29;20055;-77
2022/09/29 22:38:10;;;;;;;0.70;0.22;;;15.70;71.90;;;;;;4808727;29;20120;-76
2022/09/29 22:40:38;;;;;;;0.43;0.20;;;15.70;71.90;;;;;;4808574;29;20069;-75
2022/09/29 22:43:05;;;;;;;0.40;0.20;;;15.70;71.90;;;;;;4809125;29;20362;-77
2022/09/29 22:45:32;;;;;;;0.75;0.22;;;15.70;71.90;;;;;;4809216;29;20084;-76
2022/09/29 22:47:59;;;;;;;0.60;0.20;;;15.70;72.00;;;;;;4791081;30;20108;-76
2022/09/29 22:50:27;;;;;;;1.27;0.20;;;15.70;71.90;;;;;;4790866;30;20062;-76
2022/09/29 22:52:55;;;;;;;0.55;0.20;;;15.70;71.90;;;;;;4807677;29;20066;-75
2022/09/29 22:55:32;;;;;;;0.50;0.20;;;15.60;71.90;;;;;;4808460;29;20375;-76
2022/09/29 22:57:57;;;;;;;0.57;0.20;;;15.60;71.90;;;;;;4808782;29;20051;-74
2022/09/29 23:00:24;;;;;;;1.55;0.30;;;15.60;71.90;;;;;;4808973;29;20047;-78
2022/09/29 23:02:50;;;;;;;0.73;0.10;;;15.60;71.90;;;;;;4808288;29;20133;-74
2022/09/29 23:05:16;;;;;;;1.33;0.20;;;15.60;71.90;;;;;;4809025;29;20411;-75
2022/09/29 23:07:42;;;;;;;0.70;0.30;;;15.60;71.90;;;;;;4792636;29;20486;-75
2022/09/29 23:10:10;;;;;;;0.35;0.10;;;15.70;71.90;;;;;;4808144;29;20138;-76
2022/09/29 23:12:40;;;;;;;0.40;0.20;;;15.60;71.90;;;;;;4808033;29;20123;-74
2022/09/29 23:15:06;;;;;;;0.65;0.17;;;15.70;71.90;;;;;;4808353;29;20378;-76
2022/09/29 23:17:33;;;;;;;1.23;0.13;;;15.60;71.90;;;;;;4808019;29;20474;-74
2022/09/29 23:19:59;;;;;;;1.10;0.25;;;15.60;71.90;;;;;;4808057;29;20129;-74
2022/09/29 23:22:25;;;;;;;0.30;0.17;;;15.60;71.90;;;;;;4808005;29;20055;-74
2022/09/29 23:24:51;;;;;;;1.30;0.43;;;15.60;71.90;;;;;;4808085;29;20058;-75
2022/09/29 23:27:18;;;;;;;0.65;0.10;;;15.60;71.90;;;;;;4808673;29;20051;-75
2022/09/29 23:29:43;;;;;;;0.47;0.20;;;15.60;71.90;;;;;;4808130;29;20118;-74
2022/09/29 23:32:09;;;;;;;1.05;0.10;;;15.60;72.00;;;;;;4808276;29;20412;-74
2022/09/29 23:34:35;;;;;;;0.57;0.20;;;15.60;72.00;;;;;;4808039;29;20092;-75
2022/09/29 23:37:01;;;;;;;0.60;0.10;;;15.60;72.00;;;;;;4807705;29;20066;-75
2022/09/29 23:39:26;;;;;;;0.30;0.20;;;15.50;72.00;;;;;;4794617;29;20388;-75
2022/09/29 23:41:52;;;;;;;1.15;0.10;;;15.60;72.10;;;;;;4791341;29;20087;-75
2022/09/29 23:44:21;;;;;;;0.80;0.20;;;15.60;72.10;;;;;;4808231;29;20515;-78
2022/09/29 23:46:47;;;;;;;1.48;0.28;;;15.50;72.10;;;;;;4808263;29;20344;-74
2022/09/29 23:49:16;;;;;;;2.42;0.20;;;15.50;72.20;;;;;;4807381;29;20051;-75
2022/09/29 23:51:45;;;;;;;0.90;0.20;;;15.60;72.20;;;;;;4791814;29;20459;-76
2022/09/29 23:54:14;;;;;;;0.63;0.10;;;15.60;72.20;;;;;;4807901;29;20122;-76
2022/09/29 23:56:41;;;;;;;0.77;0.30;;;15.60;72.80;;;;;;4792055;29;20062;-75
2022/09/29 23:59:07;;;;;;;1.40;0.22;;;15.50;72.20;;;;;;4808099;29;20374;-75
